Time;durP1;ratioP1;P1;durP2;ratioP2;P2;SDS_P1;SDS_P2;PMS_P1;PMS_P2;Temp;Humidity;BMP_temperature;BMP_pressure;BME280_temperature;BME280_humidity;BME280_pressure;Samples;Min_cycle;Max_cycle;Signal;HPM_P1;HPM_P2
2021/11/08 00:00:33;;;;;;;5.20;1.25;;;6.30;99.90;;;;;;4945910;28;20114;-66
2021/11/08 00:03:05;;;;;;;4.05;0.80;;;6.30;99.90;;;;;;4966763;28;21264;-65
2021/11/08 00:05:37;;;;;;;4.78;0.90;;;6.40;99.90;;;;;;4964154;28;20081;-66
2021/11/08 00:08:05;;;;;;;1.85;0.90;;;6.40;99.90;;;;;;4963417;28;20146;-69
2021/11/08 00:10:34;;;;;;;6.63;3.20;;;6.50;99.90;;;;;;4965001;28;20062;-66
2021/11/08 00:13:07;;;;;;;2.20;1.33;;;6.50;99.90;;;;;;4964630;28;20137;-64
2021/11/08 00:20:47;;;;;;;3.38;0.80;;;6.50;99.90;;;;;;4962736;28;20137;-64
2021/11/08 00:23:15;;;;;;;2.13;1.25;;;6.50;99.90;;;;;;4966630;28;20105;-65
2021/11/08 00:25:42;;;;;;;2.08;0.95;;;6.50;99.90;;;;;;4963350;28;20130;-65
2021/11/08 00:28:11;;;;;;;1.42;0.55;;;6.50;99.90;;;;;;4969410;28;20062;-66
2021/11/08 00:30:40;;;;;;;3.90;1.23;;;6.50;99.90;;;;;;4966431;28;20568;-64
2021/11/08 00:33:09;;;;;;;4.10;1.48;;;6.50;99.90;;;;;;4970000;28;20082;-66
2021/11/08 00:35:37;;;;;;;7.80;1.20;;;6.50;99.90;;;;;;4969064;28;20134;-65
2021/11/08 00:38:05;;;;;;;2.15;0.82;;;6.50;99.90;;;;;;4968344;28;20150;-67
2021/11/08 00:40:32;;;;;;;6.55;1.58;;;6.50;99.90;;;;;;4972354;28;20146;-65
2021/11/08 00:42:59;;;;;;;3.42;0.85;;;6.50;99.90;;;;;;4967269;28;20133;-67
2021/11/08 00:45:26;;;;;;;2.78;1.10;;;6.60;99.90;;;;;;4961247;28;20165;-66
2021/11/08 00:47:54;;;;;;;2.80;0.93;;;6.60;99.90;;;;;;4948820;28;20051;-65
2021/11/08 00:50:22;;;;;;;1.58;0.65;;;6.50;99.90;;;;;;4949819;28;20086;-65
2021/11/08 00:52:49;;;;;;;3.75;1.08;;;6.50;99.90;;;;;;4948875;28;20067;-66
2021/11/08 00:55:17;;;;;;;4.55;0.70;;;6.50;99.90;;;;;;4951190;28;20086;-72
2021/11/08 00:57:45;;;;;;;4.53;0.75;;;6.40;99.90;;;;;;4948004;28;20129;-65
2021/11/08 01:00:14;;;;;;;5.68;1.30;;;6.30;99.90;;;;;;4951208;28;20083;-68
2021/11/08 01:02:42;;;;;;;3.75;0.50;;;6.30;99.90;;;;;;4947402;28;20067;-65
2021/11/08 01:05:12;;;;;;;1.23;0.95;;;6.30;99.90;;;;;;4943679;28;20063;-64
2021/11/08 01:07:39;;;;;;;2.72;0.50;;;6.30;99.90;;;;;;4954340;28;20628;-65
2021/11/08 01:10:12;;;;;;;1.17;0.40;;;6.20;99.90;;;;;;4947564;28;20076;-66
2021/11/08 01:12:39;;;;;;;6.97;1.60;;;6.20;99.90;;;;;;4946146;28;20063;-65
2021/11/08 01:15:07;;;;;;;1.08;0.50;;;6.10;99.90;;;;;;4949991;28;20454;-64
2021/11/08 01:17:35;;;;;;;5.95;1.40;;;6.00;99.90;;;;;;4950715;28;20459;-64
2021/11/08 01:20:06;;;;;;;2.70;0.55;;;6.00;99.90;;;;;;4945018;28;20071;-64
2021/11/08 01:22:35;;;;;;;1.98;0.30;;;5.90;99.90;;;;;;4946048;28;20039;-66
2021/11/08 01:25:04;;;;;;;2.05;0.40;;;5.90;99.90;;;;;;4962906;28;20051;-65
2021/11/08 01:27:36;;;;;;;1.17;0.47;;;5.90;99.90;;;;;;4948705;28;20166;-69
2021/11/08 01:30:08;;;;;;;2.00;0.63;;;6.00;99.90;;;;;;4947183;28;20125;-64
2021/11/08 01:32:35;;;;;;;3.50;0.82;;;6.00;99.90;;;;;;4949729;28;20423;-65
2021/11/08 01:35:04;;;;;;;1.58;0.93;;;6.00;99.90;;;;;;4963500;28;20067;-66
2021/11/08 01:37:31;;;;;;;2.47;0.32;;;6.00;99.90;;;;;;4949290;28;20472;-64
2021/11/08 01:39:58;;;;;;;2.20;0.60;;;6.00;99.90;;;;;;4948076;28;20129;-64
2021/11/08 01:42:25;;;;;;;5.03;0.80;;;6.00;99.90;;;;;;4946689;28;20059;-65
2021/11/08 01:44:52;;;;;;;0.57;0.32;;;6.00;99.90;;;;;;4946907;28;20070;-66
2021/11/08 01:47:19;;;;;;;1.40;0.40;;;6.00;99.90;;;;;;4949197;28;20117;-65
2021/11/08 01:49:46;;;;;;;1.27;0.40;;;5.90;99.90;;;;;;4947888;28;20130;-65
2021/11/08 01:52:13;;;;;;;2.17;0.30;;;5.70;99.90;;;;;;4949943;28;20130;-65
2021/11/08 01:54:40;;;;;;;1.50;0.55;;;5.70;99.90;;;;;;4948961;28;20143;-64
2021/11/08 01:57:07;;;;;;;1.38;0.50;;;5.70;99.90;;;;;;4941099;28;20051;-65
2021/11/08 01:59:34;;;;;;;1.67;0.40;;;5.70;99.90;;;;;;4947650;28;20071;-65
2021/11/08 02:02:02;;;;;;;4.60;0.65;;;5.70;99.90;;;;;;4949497;28;20047;-64
2021/11/08 02:04:29;;;;;;;9.02;0.75;;;5.70;99.90;;;;;;4959337;28;20790;-67
2021/11/08 02:06:56;;;;;;;2.03;0.60;;;5.70;99.90;;;;;;4949642;28;20061;-64
2021/11/08 02:09:23;;;;;;;1.40;0.30;;;5.70;99.90;;;;;;4946970;28;20117;-69
2021/11/08 02:11:51;;;;;;;0.85;0.30;;;5.70;99.90;;;;;;4945476;28;20066;-69
2021/11/08 02:14:18;;;;;;;1.80;0.43;;;5.70;99.90;;;;;;4939547;28;20153;-65
2021/11/08 02:16:44;;;;;;;3.67;1.15;;;5.70;99.90;;;;;;4948377;28;20059;-65
2021/11/08 02:19:11;;;;;;;0.85;0.73;;;5.70;99.90;;;;;;4956210;28;20078;-65
2021/11/08 02:21:38;;;;;;;2.53;0.38;;;5.60;99.90;;;;;;4966414;28;20074;-64
2021/11/08 02:24:10;;;;;;;4.13;1.25;;;5.60;99.90;;;;;;4968827;28;20154;-65
2021/11/08 02:26:38;;;;;;;3.65;0.73;;;5.50;99.90;;;;;;4967788;28;20051;-66
2021/11/08 02:29:05;;;;;;;1.50;0.52;;;5.50;99.90;;;;;;4954273;28;20051;-65
2021/11/08 02:31:33;;;;;;;2.78;0.57;;;5.50;99.90;;;;;;4966215;28;20085;-66
2021/11/08 02:34:01;;;;;;;3.13;0.65;;;5.60;99.90;;;;;;4968419;28;20090;-69
2021/11/08 02:36:29;;;;;;;1.10;0.45;;;5.60;99.90;;;;;;4945240;28;20035;-65
2021/11/08 02:38:58;;;;;;;2.15;0.70;;;5.60;99.90;;;;;;4949020;28;20122;-67
2021/11/08 02:41:26;;;;;;;1.73;0.60;;;5.60;99.90;;;;;;4954398;28;20118;-68
2021/11/08 02:43:54;;;;;;;0.85;0.47;;;5.60;99.90;;;;;;4947736;28;20055;-64
2021/11/08 02:46:25;;;;;;;2.10;0.88;;;5.60;99.90;;;;;;4948750;28;20144;-68
2021/11/08 02:48:52;;;;;;;1.65;0.60;;;5.50;99.90;;;;;;4948071;28;20138;-66
2021/11/08 02:51:23;;;;;;;3.90;0.60;;;5.50;99.90;;;;;;4967875;28;20058;-66
2021/11/08 02:53:54;;;;;;;;;;;5.50;99.90;;;;;;4966450;28;20117;-66
2021/11/08 02:56:21;;;;;;;2.78;0.75;;;5.40;99.90;;;;;;4966000;28;20398;-66
2021/11/08 02:58:48;;;;;;;3.47;0.50;;;5.40;99.90;;;;;;4981151;28;20051;-66
2021/11/08 03:01:21;;;;;;;0.73;0.50;;;5.50;99.90;;;;;;4966780;28;20145;-66
2021/11/08 03:03:53;;;;;;;2.13;0.50;;;5.50;99.90;;;;;;4966127;28;20043;-64
2021/11/08 03:08:50;;;;;;;0.75;0.40;;;5.50;99.90;;;;;;4962183;28;20073;-65
2021/11/08 03:11:18;;;;;;;0.85;0.75;;;5.50;99.90;;;;;;4964574;28;20071;-65
2021/11/08 03:13:54;;;;;;;1.02;0.50;;;5.40;99.90;;;;;;4965571;28;20146;-67
2021/11/08 03:16:39;;;;;;;3.88;0.40;;;5.40;99.90;;;;;;4964901;28;20126;-65
2021/11/08 03:22:14;;;;;;;2.88;0.47;;;5.40;99.90;;;;;;4959196;28;20043;-67
2021/11/08 03:24:55;;;;;;;1.15;0.35;;;5.40;99.90;;;;;;4960216;28;20149;-66
2021/11/08 03:30:08;;;;;;;3.17;1.13;;;5.30;99.90;;;;;;4960474;28;20066;-65
2021/11/08 03:32:37;;;;;;;1.92;0.75;;;5.30;99.90;;;;;;4962175;28;20093;-65
2021/11/08 03:35:06;;;;;;;2.72;0.40;;;5.30;99.90;;;;;;4967184;28;20066;-67
2021/11/08 03:37:38;;;;;;;3.28;1.30;;;5.30;99.90;;;;;;4960668;28;20039;-65
2021/11/08 03:40:07;;;;;;;1.77;0.80;;;5.30;99.90;;;;;;4959921;28;20058;-67
2021/11/08 03:42:35;;;;;;;6.50;0.70;;;5.40;99.90;;;;;;4963250;28;20089;-66
2021/11/08 03:45:04;;;;;;;0.38;0.38;;;5.30;99.90;;;;;;4964815;28;20487;-64
2021/11/08 03:47:32;;;;;;;0.33;0.30;;;5.30;99.90;;;;;;4972300;28;20190;-64
2021/11/08 03:49:59;;;;;;;1.00;0.57;;;5.30;99.90;;;;;;4966878;28;20510;-65
2021/11/08 03:52:26;;;;;;;0.30;0.10;;;5.20;99.90;;;;;;4948512;28;20055;-66
2021/11/08 03:54:54;;;;;;;1.77;0.50;;;5.20;99.90;;;;;;4947027;28;20539;-67
2021/11/08 03:57:21;;;;;;;3.47;0.55;;;5.20;99.90;;;;;;4943682;28;20087;-66
2021/11/08 03:59:48;;;;;;;3.00;1.52;;;5.20;99.90;;;;;;4946691;28;20146;-64
2021/11/08 04:02:15;;;;;;;1.08;0.38;;;5.20;99.90;;;;;;4948947;28;20463;-64
2021/11/08 04:04:42;;;;;;;1.67;0.45;;;5.20;99.90;;;;;;4949819;28;20125;-64
2021/11/08 04:07:09;;;;;;;1.20;0.60;;;5.20;99.90;;;;;;4950964;28;20055;-64
2021/11/08 04:09:38;;;;;;;4.38;0.57;;;5.10;99.90;;;;;;4948445;28;20520;-64
2021/11/08 04:12:07;;;;;;;2.63;0.80;;;5.10;99.90;;;;;;4952887;28;20182;-68
2021/11/08 04:14:36;;;;;;;0.73;0.40;;;5.10;99.90;;;;;;4947215;28;20035;-65
2021/11/08 04:17:04;;;;;;;2.30;0.40;;;5.10;99.90;;;;;;4951549;28;20039;-64
2021/11/08 04:19:32;;;;;;;6.10;0.47;;;5.10;99.90;;;;;;4962604;28;20177;-65
2021/11/08 04:22:02;;;;;;;0.57;0.30;;;5.10;99.90;;;;;;4936831;28;20055;-71
2021/11/08 04:24:29;;;;;;;2.22;0.35;;;5.10;99.90;;;;;;4947655;28;20081;-65
2021/11/08 04:26:56;;;;;;;0.75;0.30;;;5.00;99.90;;;;;;4965854;28;20397;-66
2021/11/08 04:29:24;;;;;;;3.30;0.52;;;5.00;99.90;;;;;;4947880;28;20671;-69
2021/11/08 04:31:52;;;;;;;1.38;0.20;;;5.00;99.90;;;;;;4946995;28;20130;-64
2021/11/08 04:34:26;;;;;;;1.85;0.30;;;5.00;99.90;;;;;;4947579;28;20529;-65
2021/11/08 04:55:20;;;;;;;0.98;0.40;;;5.00;99.90;;;;;;4969405;28;20051;-66
2021/11/08 05:22:48;;;;;;;1.48;0.55;;;4.80;99.90;;;;;;4947118;28;20559;-70
2021/11/08 05:28:19;;;;;;;4.75;0.50;;;4.80;99.90;;;;;;4946074;28;20075;-65
2021/11/08 05:30:46;;;;;;;1.40;0.50;;;4.70;99.90;;;;;;4952201;28;20153;-65
2021/11/08 05:33:14;;;;;;;1.50;0.98;;;4.70;99.90;;;;;;4967326;28;20038;-65
2021/11/08 05:35:41;;;;;;;0.65;0.30;;;4.70;99.90;;;;;;4966590;28;20059;-68
2021/11/08 05:38:11;;;;;;;0.70;0.20;;;4.70;99.90;;;;;;4967997;28;20527;-65
2021/11/08 05:40:39;;;;;;;4.50;0.50;;;4.70;99.90;;;;;;4964662;28;20113;-66
2021/11/08 05:43:07;;;;;;;0.50;0.30;;;4.70;99.90;;;;;;4967174;28;20472;-66
2021/11/08 05:45:35;;;;;;;1.58;1.35;;;4.70;99.90;;;;;;4967511;28;20143;-68
2021/11/08 05:48:08;;;;;;;2.30;0.40;;;4.70;99.90;;;;;;4967013;28;20082;-65
2021/11/08 05:50:38;;;;;;;1.63;0.40;;;4.70;99.90;;;;;;4965858;28;20532;-65
2021/11/08 05:53:08;;;;;;;0.28;0.20;;;4.60;99.90;;;;;;4964281;28;20058;-65
2021/11/08 05:55:44;;;;;;;0.63;0.20;;;4.60;99.90;;;;;;4966743;28;20051;-72
2021/11/08 06:50:30;;;;;;;2.08;0.30;;;4.70;99.90;;;;;;4964245;28;20113;-65
2021/11/08 06:53:02;;;;;;;3.50;0.57;;;4.70;99.90;;;;;;4968321;28;20109;-64
2021/11/08 06:55:29;;;;;;;0.70;0.35;;;4.60;99.90;;;;;;4955924;28;20428;-67
2021/11/08 06:58:02;;;;;;;3.03;0.20;;;4.60;99.90;;;;;;4959677;28;20066;-64
2021/11/08 07:00:30;;;;;;;0.30;0.30;;;4.60;99.90;;;;;;4961864;28;20185;-64
2021/11/08 07:02:57;;;;;;;3.05;0.80;;;4.70;99.90;;;;;;4948349;28;20417;-65
2021/11/08 07:05:24;;;;;;;0.60;0.25;;;4.70;99.90;;;;;;4944877;28;20523;-65
2021/11/08 07:07:51;;;;;;;1.33;0.63;;;4.70;99.90;;;;;;4946162;28;20082;-64
2021/11/08 07:10:20;;;;;;;1.58;0.30;;;4.70;99.90;;;;;;4947346;28;20106;-65
2021/11/08 07:12:49;;;;;;;1.83;0.30;;;4.70;99.90;;;;;;4962786;28;20078;-77
2021/11/08 07:15:19;;;;;;;5.13;0.40;;;4.70;99.90;;;;;;4964909;28;20116;-63
2021/11/08 07:17:47;;;;;;;4.65;0.70;;;4.70;99.90;;;;;;4952822;28;20078;-65
2021/11/08 07:20:15;;;;;;;2.30;0.30;;;4.70;99.90;;;;;;4945613;28;20051;-67
2021/11/08 07:22:43;;;;;;;4.93;0.40;;;4.70;99.90;;;;;;4946885;28;20916;-64
2021/11/08 07:25:10;;;;;;;0.38;0.22;;;4.70;99.90;;;;;;4947835;28;20077;-65
2021/11/08 07:27:38;;;;;;;4.65;0.32;;;4.70;99.90;;;;;;4947455;28;20047;-63
2021/11/08 07:30:06;;;;;;;2.15;1.33;;;4.70;99.90;;;;;;4959531;28;20077;-65
2021/11/08 07:32:33;;;;;;;0.40;0.40;;;4.80;99.90;;;;;;4965152;28;20453;-70
2021/11/08 07:35:00;;;;;;;2.20;0.30;;;4.80;99.90;;;;;;4964860;28;20070;-64
2021/11/08 07:37:27;;;;;;;0.57;0.20;;;4.80;99.90;;;;;;4964891;28;20122;-65
2021/11/08 07:39:54;;;;;;;1.25;0.35;;;4.80;99.90;;;;;;4962830;28;20137;-65
2021/11/08 07:42:21;;;;;;;4.63;0.20;;;4.60;99.90;;;;;;4969238;28;20161;-68
2021/11/08 07:44:48;;;;;;;2.05;0.30;;;4.50;99.90;;;;;;4964436;28;20073;-65
2021/11/08 07:47:15;;;;;;;1.08;0.38;;;4.40;99.90;;;;;;4959105;28;20179;-64
2021/11/08 07:49:43;;;;;;;1.23;0.38;;;4.30;99.90;;;;;;4956550;28;20059;-64
2021/11/08 07:52:11;;;;;;;1.95;0.25;;;4.30;99.90;;;;;;4962771;28;20070;-67
2021/11/08 07:54:38;;;;;;;1.60;0.28;;;4.30;99.90;;;;;;4955530;28;20047;-67
2021/11/08 07:57:05;;;;;;;2.13;0.45;;;4.40;99.90;;;;;;4961815;28;20051;-64
2021/11/08 07:59:33;;;;;;;2.33;0.50;;;4.40;99.90;;;;;;4962469;28;20058;-65
2021/11/08 08:02:02;;;;;;;1.40;0.13;;;4.30;99.90;;;;;;4959680;28;20117;-69
2021/11/08 08:04:30;;;;;;;1.75;0.25;;;4.40;99.90;;;;;;4960684;28;20053;-63
2021/11/08 08:06:58;;;;;;;0.73;0.20;;;4.40;99.90;;;;;;4962752;28;20082;-69
2021/11/08 08:09:25;;;;;;;0.75;0.30;;;4.40;99.90;;;;;;4960678;28;20043;-67
2021/11/08 08:11:52;;;;;;;5.88;0.63;;;4.40;99.90;;;;;;4963665;28;20039;-64
2021/11/08 08:14:19;;;;;;;2.65;0.50;;;4.40;99.90;;;;;;4964560;28;20051;-64
2021/11/08 08:16:46;;;;;;;4.75;1.15;;;4.40;99.90;;;;;;4959562;28;20141;-64
2021/11/08 08:19:13;;;;;;;0.20;0.10;;;4.40;99.90;;;;;;4962137;28;20074;-67
2021/11/08 08:21:40;;;;;;;2.63;0.50;;;4.40;99.90;;;;;;4963969;28;20136;-64
2021/11/08 08:24:07;;;;;;;1.38;0.20;;;4.40;99.90;;;;;;4964742;28;20081;-64
2021/11/08 08:26:39;;;;;;;2.35;0.30;;;4.40;99.90;;;;;;4961984;28;20046;-73
2021/11/08 08:29:07;;;;;;;2.15;0.32;;;4.40;99.90;;;;;;4966276;28;20047;-70
2021/11/08 08:31:41;;;;;;;0.05;0.03;;;4.40;99.90;;;;;;4963274;28;20073;-68
2021/11/08 08:34:10;;;;;;;5.57;0.63;;;4.40;99.90;;;;;;4966771;28;20050;-64
2021/11/08 08:36:38;;;;;;;0.67;0.23;;;4.40;99.90;;;;;;4963757;28;20496;-64
2021/11/08 08:39:07;;;;;;;0.40;0.20;;;4.40;99.90;;;;;;4965377;28;20535;-64
2021/11/08 08:41:35;;;;;;;0.43;0.30;;;4.50;99.90;;;;;;4959656;28;20043;-67
2021/11/08 08:44:03;;;;;;;0.30;0.20;;;4.50;99.90;;;;;;4967929;28;20054;-64
2021/11/08 08:46:30;;;;;;;0.63;0.55;;;4.50;99.90;;;;;;4962993;28;20074;-67
2021/11/08 08:48:59;;;;;;;1.00;0.43;;;4.50;99.90;;;;;;4971271;28;20098;-65
2021/11/08 08:51:26;;;;;;;2.20;0.43;;;4.60;99.90;;;;;;4958632;28;20509;-70
2021/11/08 08:53:53;;;;;;;1.52;0.30;;;4.60;99.90;;;;;;4955527;28;20093;-66
2021/11/08 08:56:21;;;;;;;0.70;0.68;;;4.70;99.90;;;;;;4949820;28;20079;-64
2021/11/08 08:58:54;;;;;;;0.55;0.50;;;4.70;99.90;;;;;;4973068;28;20546;-64
2021/11/08 09:01:24;;;;;;;3.15;0.40;;;4.70;99.90;;;;;;4965678;28;20101;-72
2021/11/08 09:03:52;;;;;;;0.63;0.50;;;4.60;99.90;;;;;;4974270;28;20054;-66
2021/11/08 09:06:20;;;;;;;3.72;0.75;;;4.60;99.90;;;;;;4968744;28;20113;-72
2021/11/08 09:08:47;;;;;;;1.13;0.85;;;4.60;99.90;;;;;;4968310;28;20133;-63
2021/11/08 09:11:14;;;;;;;1.27;0.57;;;4.60;99.90;;;;;;4966745;28;20051;-67
2021/11/08 09:13:43;;;;;;;1.95;0.82;;;4.60;99.90;;;;;;4968746;28;20117;-66
2021/11/08 09:16:11;;;;;;;1.63;0.90;;;4.70;99.90;;;;;;4966795;28;20047;-65
2021/11/08 09:18:41;;;;;;;1.35;0.77;;;4.70;99.90;;;;;;4977583;28;20116;-67
2021/11/08 09:21:09;;;;;;;3.40;0.68;;;4.70;99.90;;;;;;4948364;28;20071;-65
2021/11/08 09:23:37;;;;;;;1.20;0.57;;;4.70;99.90;;;;;;4946960;28;20046;-69
2021/11/08 09:26:04;;;;;;;1.10;1.00;;;4.60;99.90;;;;;;4963454;28;20077;-67
2021/11/08 09:28:31;;;;;;;1.50;0.77;;;4.60;99.90;;;;;;4945537;28;20162;-70
2021/11/08 09:30:58;;;;;;;1.48;0.52;;;4.60;99.90;;;;;;4964823;28;20079;-66
2021/11/08 09:33:26;;;;;;;1.60;0.80;;;4.70;99.90;;;;;;4945690;28;20463;-70
2021/11/08 09:36:00;;;;;;;1.60;1.15;;;4.70;99.90;;;;;;4947268;28;20122;-64
2021/11/08 09:38:27;;;;;;;1.40;0.90;;;4.80;99.90;;;;;;4944450;28;20476;-69
2021/11/08 09:40:54;;;;;;;5.50;1.23;;;4.80;99.90;;;;;;4947364;28;20047;-65
2021/11/08 09:43:24;;;;;;;0.98;0.65;;;4.80;99.90;;;;;;4953258;28;20410;-65
2021/11/08 09:45:52;;;;;;;3.67;0.90;;;4.90;99.90;;;;;;4961896;28;20051;-67
2021/11/08 09:48:20;;;;;;;1.20;0.70;;;4.90;99.90;;;;;;4967220;28;20078;-67
2021/11/08 09:50:48;;;;;;;1.17;0.75;;;5.00;99.90;;;;;;4962485;28;20050;-64
2021/11/08 09:53:16;;;;;;;3.78;1.15;;;4.90;99.90;;;;;;4966974;28;20043;-66
2021/11/08 09:55:45;;;;;;;2.00;0.63;;;5.00;99.90;;;;;;4964780;28;20105;-65
2021/11/08 09:58:13;;;;;;;0.73;0.43;;;4.90;99.90;;;;;;4964588;28;20054;-64
2021/11/08 10:00:40;;;;;;;0.90;0.68;;;4.90;99.90;;;;;;4971123;28;20145;-65
2021/11/08 10:03:11;;;;;;;0.88;0.38;;;4.90;99.90;;;;;;4960270;28;20154;-65
2021/11/08 10:05:41;;;;;;;;;;;4.90;99.90;;;;;;4967301;28;20464;-70
2021/11/08 10:08:26;;;;;;;4.57;0.85;;;4.90;99.90;;;;;;4961524;28;20395;-67
2021/11/08 10:10:55;;;;;;;;;;;5.00;99.90;;;;;;4962404;28;20079;-70
2021/11/08 10:13:28;;;;;;;3.40;1.02;;;5.10;99.90;;;;;;4941156;28;20506;-68
2021/11/08 10:16:01;;;;;;;1.52;0.80;;;5.20;99.90;;;;;;4952327;28;21284;-65
2021/11/08 10:18:29;;;;;;;2.33;1.55;;;5.20;99.90;;;;;;4941750;28;20109;-66
2021/11/08 10:21:10;;;;;;;0.98;0.73;;;5.20;99.90;;;;;;4947499;28;20146;-65
2021/11/08 10:23:38;;;;;;;;;;;5.10;99.90;;;;;;4948063;28;20456;-68
2021/11/08 10:26:11;;;;;;;1.20;0.77;;;5.00;99.90;;;;;;4946701;28;19929;-64
2021/11/08 10:28:39;;;;;;;1.17;0.82;;;5.00;99.90;;;;;;4942821;28;20051;-70
2021/11/08 10:31:10;;;;;;;1.95;0.60;;;4.90;99.90;;;;;;4959999;28;20222;-72
2021/11/08 10:33:40;;;;;;;2.05;0.77;;;4.80;99.90;;;;;;4946476;28;20058;-70
2021/11/08 10:36:16;;;;;;;2.58;1.10;;;4.80;99.90;;;;;;4947544;28;20102;-68
2021/11/08 10:38:46;;;;;;;2.25;1.00;;;4.80;99.90;;;;;;4945980;28;20078;-67
2021/11/08 10:41:17;;;;;;;1.35;0.50;;;4.80;99.90;;;;;;4939677;28;20398;-67
2021/11/08 10:43:44;;;;;;;1.48;0.82;;;4.80;99.90;;;;;;4945476;28;20063;-68
2021/11/08 10:46:17;;;;;;;3.03;1.10;;;4.80;99.90;;;;;;4948033;28;20126;-65
2021/11/08 10:48:52;;;;;;;3.08;1.35;;;4.90;99.90;;;;;;4943929;28;20589;-64
2021/11/08 10:51:24;;;;;;;0.75;0.55;;;5.00;99.90;;;;;;4946312;28;20458;-64
2021/11/08 10:54:03;;;;;;;4.45;1.65;;;5.00;99.90;;;;;;4944805;28;20678;-65
2021/11/08 10:56:32;;;;;;;2.08;0.80;;;5.00;99.90;;;;;;4945676;28;20114;-66
2021/11/08 10:59:03;;;;;;;2.65;0.98;;;4.90;99.90;;;;;;4946802;28;20047;-67
2021/11/08 11:01:33;;;;;;;2.22;0.88;;;4.70;99.90;;;;;;4946437;28;20047;-67
2021/11/08 11:04:04;;;;;;;1.25;1.00;;;4.60;99.90;;;;;;4942506;28;20047;-67
2021/11/08 11:06:47;;;;;;;2.00;1.20;;;4.50;99.90;;;;;;4938126;28;20091;-65
2021/11/08 11:09:23;;;;;;;1.13;0.75;;;4.50;99.90;;;;;;4945102;28;20055;-68
2021/11/08 11:12:13;;;;;;;2.65;0.70;;;4.50;99.90;;;;;;4949891;28;20133;-67
2021/11/08 11:14:55;;;;;;;3.10;1.17;;;4.60;99.90;;;;;;4945095;28;20127;-64
2021/11/08 11:17:29;;;;;;;1.50;0.70;;;4.60;99.90;;;;;;4945768;28;20504;-70
2021/11/08 11:20:12;;;;;;;3.47;1.38;;;4.60;99.90;;;;;;4944524;28;20122;-67
2021/11/08 11:22:45;;;;;;;2.30;1.00;;;4.60;99.90;;;;;;4944915;28;20061;-66
2021/11/08 11:25:14;;;;;;;1.35;0.95;;;4.60;99.90;;;;;;4945272;28;20373;-65
2021/11/08 11:27:48;;;;;;;1.00;0.73;;;4.60;99.90;;;;;;4944264;28;20142;-64
2021/11/08 11:30:16;;;;;;;1.30;1.00;;;4.80;99.90;;;;;;4952919;28;20051;-65
2021/11/08 11:32:44;;;;;;;6.35;1.30;;;4.90;99.90;;;;;;4946668;28;20047;-65
2021/11/08 11:35:16;;;;;;;2.70;1.27;;;4.90;99.90;;;;;;4943941;28;20126;-68
2021/11/08 11:38:02;;;;;;;1.50;1.30;;;5.00;99.90;;;;;;4944986;28;20117;-65
2021/11/08 11:40:31;;;;;;;1.58;1.38;;;5.00;99.90;;;;;;4945175;28;20082;-65
2021/11/08 11:43:03;;;;;;;1.75;1.65;;;5.10;99.90;;;;;;4946416;28;20063;-64
2021/11/08 11:45:52;;;;;;;3.78;1.63;;;5.20;99.90;;;;;;4943914;28;20058;-64
2021/11/08 11:48:23;;;;;;;2.20;1.10;;;5.20;99.90;;;;;;4944363;28;20476;-68
2021/11/08 11:51:11;;;;;;;4.32;1.85;;;5.20;99.90;;;;;;4956893;28;20114;-67
2021/11/08 11:53:38;;;;;;;5.40;1.20;;;5.20;99.90;;;;;;4945215;28;20051;-64
2021/11/08 11:56:06;;;;;;;4.38;1.60;;;5.10;99.90;;;;;;4946232;28;20428;-66
2021/11/08 11:58:34;;;;;;;2.13;1.27;;;5.10;99.90;;;;;;4949700;28;20142;-65
2021/11/08 12:01:02;;;;;;;1.98;1.67;;;5.10;99.90;;;;;;4945700;28;20058;-65
2021/11/08 12:03:29;;;;;;;4.28;1.42;;;5.10;99.90;;;;;;4948676;28;20134;-66
2021/11/08 12:05:57;;;;;;;1.70;1.15;;;5.10;99.90;;;;;;4946064;28;20083;-64
2021/11/08 12:08:34;;;;;;;2.28;1.60;;;5.10;99.90;;;;;;4946443;28;20099;-71
2021/11/08 12:11:02;;;;;;;2.10;1.23;;;5.10;99.90;;;;;;4958164;28;20377;-66
2021/11/08 12:13:30;;;;;;;4.68;2.22;;;5.20;99.90;;;;;;4945664;28;20046;-65
2021/11/08 12:16:18;;;;;;;3.33;1.58;;;5.20;99.90;;;;;;4948252;28;20070;-67
2021/11/08 12:18:46;;;;;;;1.67;1.48;;;5.20;99.90;;;;;;4960559;28;20126;-64
2021/11/08 12:21:24;;;;;;;1.92;1.25;;;5.20;99.90;;;;;;4955231;28;20117;-66
2021/11/08 12:23:53;;;;;;;2.05;1.27;;;5.20;99.90;;;;;;4968311;28;20117;-65
2021/11/08 12:26:25;;;;;;;4.80;1.52;;;5.20;99.90;;;;;;4969565;28;20043;-65
2021/11/08 12:29:09;;;;;;;2.40;1.67;;;5.20;99.90;;;;;;4968152;28;20079;-65
2021/11/08 12:31:37;;;;;;;2.88;1.60;;;5.20;99.90;;;;;;4969012;28;20046;-65
2021/11/08 12:34:07;;;;;;;2.20;1.40;;;5.20;99.90;;;;;;4970028;28;20125;-70
2021/11/08 12:36:35;;;;;;;5.45;2.63;;;5.00;99.90;;;;;;4966033;28;20075;-66
2021/11/08 12:39:10;;;;;;;3.15;1.70;;;4.90;99.90;;;;;;4983144;28;20105;-68
2021/11/08 12:41:48;;;;;;;1.85;1.33;;;4.80;99.90;;;;;;4966395;28;20055;-70
2021/11/08 12:44:21;;;;;;;2.03;1.35;;;4.70;99.90;;;;;;4968024;28;20121;-65
2021/11/08 12:46:52;;;;;;;2.40;1.80;;;4.60;99.90;;;;;;4967262;28;20659;-64
2021/11/08 12:49:29;;;;;;;3.08;2.25;;;4.60;99.90;;;;;;4969987;28;20067;-66
2021/11/08 12:52:06;;;;;;;2.03;1.48;;;4.50;99.90;;;;;;4960460;28;20090;-65
2021/11/08 12:54:55;;;;;;;1.48;1.10;;;4.50;99.90;;;;;;4965029;28;20093;-64
2021/11/08 12:57:24;;;;;;;5.32;1.42;;;4.40;99.90;;;;;;4979563;28;20062;-65
2021/11/08 13:00:17;;;;;;;1.27;1.08;;;4.50;99.90;;;;;;4966215;28;20051;-65
2021/11/08 13:02:57;;;;;;;3.13;1.40;;;4.40;99.90;;;;;;4967594;28;20058;-65
2021/11/08 13:05:31;;;;;;;2.92;1.63;;;4.40;99.90;;;;;;4967430;28;20051;-67
2021/11/08 13:07:59;;;;;;;2.42;1.77;;;4.40;99.90;;;;;;4968973;28;20038;-64
2021/11/08 13:10:30;;;;;;;2.78;2.33;;;4.40;99.90;;;;;;4965860;28;20074;-66
2021/11/08 13:12:58;;;;;;;2.35;1.67;;;4.40;99.90;;;;;;4967311;28;20042;-66
2021/11/08 13:15:29;;;;;;;6.10;1.60;;;4.50;99.90;;;;;;4980609;28;20173;-65
2021/11/08 13:18:02;;;;;;;4.80;1.55;;;4.50;99.90;;;;;;4967935;28;20047;-64
2021/11/08 13:20:39;;;;;;;3.10;1.60;;;4.50;99.90;;;;;;4966302;28;20055;-64
2021/11/08 13:23:10;;;;;;;2.22;1.60;;;4.50;99.90;;;;;;4962361;28;20119;-64
2021/11/08 13:25:44;;;;;;;5.13;2.67;;;4.40;99.90;;;;;;4949802;28;20126;-65
2021/11/08 13:28:16;;;;;;;2.22;1.80;;;4.30;99.90;;;;;;4947074;28;20047;-65
2021/11/08 13:30:49;;;;;;;3.83;1.70;;;4.30;99.90;;;;;;4952710;28;20094;-66
2021/11/08 13:33:28;;;;;;;3.08;2.13;;;4.30;99.90;;;;;;4947235;28;20131;-67
2021/11/08 13:35:57;;;;;;;4.85;2.10;;;4.30;99.90;;;;;;4941493;28;20051;-67
2021/11/08 13:38:39;;;;;;;5.13;2.22;;;4.20;99.90;;;;;;4944131;28;20438;-66
2021/11/08 13:41:16;;;;;;;2.97;2.38;;;4.20;99.90;;;;;;4949576;28;20043;-68
2021/11/08 13:43:49;;;;;;;2.83;2.03;;;4.20;99.90;;;;;;4946264;28;20047;-68
2021/11/08 13:46:47;;;;;;;2.92;1.92;;;4.30;99.90;;;;;;4949916;28;20469;-64
2021/11/08 13:49:17;;;;;;;3.20;2.33;;;4.30;99.90;;;;;;4978158;28;20039;-70
2021/11/08 13:51:57;;;;;;;2.70;2.13;;;4.30;99.90;;;;;;4962943;28;20118;-66
2021/11/08 13:54:25;;;;;;;4.80;2.57;;;4.40;99.90;;;;;;4970244;28;20074;-67
2021/11/08 13:57:08;;;;;;;3.95;2.30;;;4.40;99.90;;;;;;4965050;28;20161;-65
2021/11/08 13:59:40;;;;;;;2.70;1.65;;;4.50;99.90;;;;;;4967471;28;20047;-65
2021/11/08 14:02:18;;;;;;;4.65;1.90;;;4.60;99.90;;;;;;4953202;28;20653;-65
2021/11/08 14:04:49;;;;;;;2.45;1.77;;;4.70;99.90;;;;;;4947076;28;20053;-67
2021/11/08 14:07:21;;;;;;;2.67;1.70;;;4.70;99.90;;;;;;4947055;28;20039;-65
2021/11/08 14:09:48;;;;;;;1.70;1.60;;;4.70;99.90;;;;;;4951497;28;20058;-67
2021/11/08 14:12:18;;;;;;;6.53;1.70;;;4.70;99.90;;;;;;4947712;28;20090;-64
2021/11/08 14:14:47;;;;;;;2.65;1.85;;;4.60;99.90;;;;;;4968354;28;20119;-68
2021/11/08 14:17:19;;;;;;;2.05;1.40;;;4.60;99.90;;;;;;4967321;28;20070;-66
2021/11/08 14:19:51;;;;;;;2.35;1.55;;;4.60;99.90;;;;;;4956303;28;20049;-64
2021/11/08 14:22:23;;;;;;;5.30;1.98;;;4.60;99.90;;;;;;4967070;28;20043;-73
2021/11/08 14:24:50;;;;;;;4.47;1.95;;;4.60;99.90;;;;;;4968880;28;20050;-64
2021/11/08 14:27:20;;;;;;;2.22;1.63;;;4.60;99.90;;;;;;4961726;28;20070;-64
2021/11/08 14:29:47;;;;;;;2.42;1.45;;;4.60;99.90;;;;;;4971511;28;20047;-66
2021/11/08 14:32:28;;;;;;;3.58;2.00;;;4.60;99.90;;;;;;4973697;28;20061;-65
2021/11/08 14:35:09;;;;;;;3.72;1.42;;;4.50;99.90;;;;;;4963940;28;20047;-72
2021/11/08 14:38:02;;;;;;;1.63;1.38;;;4.40;99.90;;;;;;4970865;28;20067;-64
2021/11/08 14:40:37;;;;;;;6.93;1.67;;;4.40;99.90;;;;;;4951830;28;20557;-64
2021/11/08 14:43:21;;;;;;;2.33;1.35;;;4.50;99.90;;;;;;4951762;28;20042;-72
2021/11/08 14:45:54;;;;;;;2.63;1.40;;;4.50;99.90;;;;;;4962391;28;20078;-65
2021/11/08 14:48:26;;;;;;;3.60;1.70;;;4.50;99.90;;;;;;4969558;28;20050;-66
2021/11/08 14:51:16;;;;;;;2.13;1.42;;;4.50;99.90;;;;;;4963490;28;20046;-65
2021/11/08 14:54:00;;;;;;;1.88;1.15;;;4.60;99.90;;;;;;4965977;28;20050;-66
2021/11/08 14:56:32;;;;;;;1.50;1.23;;;4.50;99.90;;;;;;4963779;28;20113;-66
2021/11/08 14:59:05;;;;;;;2.08;1.05;;;4.50;99.90;;;;;;4948149;28;20057;-65
2021/11/08 15:01:33;;;;;;;3.28;1.23;;;4.50;99.90;;;;;;4946297;28;20996;-69
2021/11/08 15:04:20;;;;;;;3.97;2.03;;;4.50;99.90;;;;;;4949235;28;20137;-66
2021/11/08 15:06:56;;;;;;;3.17;1.48;;;4.50;99.90;;;;;;4945585;28;20055;-64